RZO235 LPLA-KJFK
Flight info
| Callsign | RZO235 |
|---|---|
| Flight time | N/A |
| Altitude | 36000 |
| Route | INPIR DCT 40N030W 44N040W 45N050W/M078F380 DCT RAFIN/N0458F380 N82A KANNI DCT PLYMM PARCH4 |
| Aircraft | A21N/M-SDGHIJ7M3RWXY/LB1D1 |
Departure
| Time | 2026-04-25 12:54 |
|---|---|
| Airport | Lajes Airport (LPLA) |
Arrival
| Time | N/A |
|---|---|
| Airport | John F. Kennedy International Airport (KJFK) |
| Time | Latitude | Longitude | Altitude | Speed | Heading |
|---|---|---|---|---|---|
| 2026-04-25 12:40 | 38.75547 | -27.08748 | 202 ft | 0 kts | 321° |
| 2026-04-25 12:45 | 38.75548 | -27.08748 | 202 ft | 0 kts | 321° |
| 2026-04-25 12:45 | 38.75564 | -27.08747 | 201 ft | 6 kts | 42° |
| 2026-04-25 12:45 | 38.75481 | -27.08585 | 200 ft | 17 kts | 127° |
| 2026-04-25 12:46 | 38.75522 | -27.08437 | 195 ft | 21 kts | 39° |
| 2026-04-25 12:46 | 38.75614 | -27.08478 | 194 ft | 12 kts | 334° |
| 2026-04-25 12:46 | 38.75697 | -27.08473 | 196 ft | 11 kts | 33° |
| 2026-04-25 12:46 | 38.75751 | -27.08420 | 199 ft | 8 kts | 18° |
| 2026-04-25 12:47 | 38.75789 | -27.08443 | 200 ft | 5 kts | 327° |
| 2026-04-25 12:47 | 38.75817 | -27.08466 | 201 ft | 4 kts | 327° |
| 2026-04-25 12:47 | 38.75845 | -27.08489 | 202 ft | 7 kts | 326° |
| 2026-04-25 12:47 | 38.75915 | -27.08558 | 199 ft | 15 kts | 322° |
| 2026-04-25 12:48 | 38.76005 | -27.08651 | 196 ft | 17 kts | 321° |
| 2026-04-25 12:48 | 38.76106 | -27.08756 | 191 ft | 19 kts | 321° |
| 2026-04-25 12:48 | 38.76218 | -27.08869 | 187 ft | 21 kts | 321° |
| 2026-04-25 12:48 | 38.76331 | -27.08991 | 184 ft | 21 kts | 322° |
| 2026-04-25 12:49 | 38.76450 | -27.09114 | 180 ft | 22 kts | 321° |
| 2026-04-25 12:49 | 38.76574 | -27.09242 | 176 ft | 23 kts | 321° |
| 2026-04-25 12:49 | 38.76698 | -27.09373 | 173 ft | 23 kts | 321° |
| 2026-04-25 12:49 | 38.76825 | -27.09506 | 168 ft | 24 kts | 321° |
| 2026-04-25 12:50 | 38.76957 | -27.09643 | 165 ft | 24 kts | 321° |
| 2026-04-25 12:50 | 38.77084 | -27.09777 | 163 ft | 23 kts | 321° |
| 2026-04-25 12:50 | 38.77206 | -27.09902 | 162 ft | 16 kts | 321° |
| 2026-04-25 12:50 | 38.77270 | -27.09981 | 162 ft | 10 kts | 274° |
| 2026-04-25 12:51 | 38.77246 | -27.10056 | 165 ft | 7 kts | 243° |
| 2026-04-25 12:51 | 38.77235 | -27.10121 | 167 ft | 10 kts | 278° |
| 2026-04-25 12:51 | 38.77269 | -27.10203 | 169 ft | 14 kts | 308° |
| 2026-04-25 12:51 | 38.77376 | -27.10330 | 170 ft | 22 kts | 322° |
| 2026-04-25 12:52 | 38.77494 | -27.10446 | 168 ft | 17 kts | 323° |
| 2026-04-25 12:52 | 38.77562 | -27.10499 | 167 ft | 7 kts | 253° |
| 2026-04-25 12:52 | 38.77549 | -27.10503 | 167 ft | 1 kts | 141° |
| 2026-04-25 12:52 | 38.77548 | -27.10502 | 167 ft | 0 kts | 140° |
| 2026-04-25 12:53 | 38.77542 | -27.10497 | 167 ft | 6 kts | 140° |
| 2026-04-25 12:53 | 38.77279 | -27.10219 | 169 ft | 89 kts | 137° |
| 2026-04-25 12:53 | 38.76617 | -27.09531 | 174 ft | 154 kts | 140° |
| 2026-04-25 12:54 | 38.75691 | -27.08548 | 502 ft | 175 kts | 136° |
| 2026-04-25 12:54 | 38.74780 | -27.07603 | 1244 ft | 170 kts | 139° |
| 2026-04-25 12:54 | 38.73850 | -27.06674 | 1883 ft | 172 kts | 136° |
| 2026-04-25 12:54 | 38.72944 | -27.05667 | 2398 ft | 182 kts | 134° |
| 2026-04-25 12:55 | 38.71980 | -27.04573 | 2922 ft | 189 kts | 134° |
| 2026-04-25 12:55 | 38.71326 | -27.03828 | 3311 ft | 191 kts | 134° |
| 2026-04-25 12:55 | 38.69802 | -27.02556 | 3958 ft | 208 kts | 167° |
| 2026-04-25 12:55 | 38.68365 | -27.02823 | 4298 ft | 222 kts | 212° |
| 2026-04-25 12:56 | 38.67371 | -27.04336 | 4657 ft | 229 kts | 255° |
| 2026-04-25 12:56 | 38.67372 | -27.06358 | 4948 ft | 241 kts | 295° |
| 2026-04-25 12:56 | 38.68332 | -27.08166 | 5417 ft | 253 kts | 314° |
| 2026-04-25 12:56 | 38.69511 | -27.09891 | 6083 ft | 262 kts | 312° |
| 2026-04-25 12:57 | 38.70644 | -27.11715 | 6902 ft | 266 kts | 309° |
| 2026-04-25 12:57 | 38.71728 | -27.13631 | 7715 ft | 269 kts | 307° |
| 2026-04-25 12:57 | 38.72777 | -27.15617 | 8505 ft | 273 kts | 306° |
| 2026-04-25 12:57 | 38.73809 | -27.17664 | 9282 ft | 276 kts | 305° |
| 2026-04-25 12:58 | 38.74824 | -27.19738 | 10037 ft | 280 kts | 304° |
| 2026-04-25 12:58 | 38.75842 | -27.21856 | 10680 ft | 287 kts | 304° |
| 2026-04-25 12:58 | 38.76915 | -27.24111 | 11052 ft | 304 kts | 304° |
| 2026-04-25 12:58 | 38.78041 | -27.26497 | 11387 ft | 321 kts | 303° |
| 2026-04-25 12:59 | 38.79201 | -27.28974 | 11932 ft | 330 kts | 303° |
| 2026-04-25 12:59 | 38.80373 | -27.31485 | 12643 ft | 333 kts | 303° |
| 2026-04-25 12:59 | 38.81560 | -27.34037 | 13350 ft | 336 kts | 303° |
| 2026-04-25 12:59 | 38.82764 | -27.36629 | 14029 ft | 339 kts | 303° |
| 2026-04-25 13:00 | 38.83959 | -27.39203 | 14682 ft | 343 kts | 303° |
| 2026-04-25 13:00 | 38.84769 | -27.40949 | 15113 ft | 345 kts | 303° |
| 2026-04-25 13:00 | 38.86414 | -27.44499 | 15962 ft | 349 kts | 303° |
| 2026-04-25 13:00 | 38.87651 | -27.47172 | 16578 ft | 353 kts | 303° |
| 2026-04-25 13:01 | 38.88904 | -27.49884 | 17184 ft | 356 kts | 303° |
| 2026-04-25 13:01 | 38.90166 | -27.52615 | 17776 ft | 359 kts | 303° |
| 2026-04-25 13:01 | 38.91437 | -27.55370 | 18353 ft | 362 kts | 303° |
| 2026-04-25 13:01 | 38.92739 | -27.58192 | 18927 ft | 366 kts | 303° |
| 2026-04-25 13:02 | 38.94030 | -27.60994 | 19477 ft | 369 kts | 303° |
| 2026-04-25 13:02 | 38.95327 | -27.63813 | 20012 ft | 372 kts | 303° |
| 2026-04-25 13:02 | 38.96643 | -27.66675 | 20540 ft | 375 kts | 302° |
| 2026-04-25 13:02 | 38.97973 | -27.69569 | 21055 ft | 378 kts | 302° |
| 2026-04-25 13:03 | 38.99308 | -27.72478 | 21558 ft | 381 kts | 302° |
| 2026-04-25 13:03 | 39.00661 | -27.75426 | 22053 ft | 384 kts | 302° |
| 2026-04-25 13:03 | 39.02016 | -27.78385 | 22532 ft | 387 kts | 302° |
| 2026-04-25 13:03 | 39.03384 | -27.81371 | 23002 ft | 390 kts | 302° |
| 2026-04-25 13:04 | 39.04754 | -27.84366 | 23458 ft | 392 kts | 302° |
| 2026-04-25 13:04 | 39.06138 | -27.87396 | 23902 ft | 395 kts | 302° |
| 2026-04-25 13:04 | 39.07538 | -27.90461 | 24336 ft | 398 kts | 302° |
| 2026-04-25 13:04 | 39.08937 | -27.93531 | 24755 ft | 400 kts | 302° |
| 2026-04-25 13:05 | 39.10340 | -27.96609 | 25161 ft | 403 kts | 302° |
| 2026-04-25 13:05 | 39.11756 | -27.99721 | 25558 ft | 405 kts | 302° |
| 2026-04-25 13:05 | 39.13183 | -28.02858 | 25943 ft | 408 kts | 302° |
| 2026-04-25 13:05 | 39.14619 | -28.06019 | 26317 ft | 410 kts | 302° |
| 2026-04-25 13:06 | 39.16052 | -28.09177 | 26677 ft | 413 kts | 302° |
| 2026-04-25 13:06 | 39.17503 | -28.12378 | 27030 ft | 415 kts | 302° |
| 2026-04-25 13:06 | 39.18960 | -28.15596 | 27372 ft | 417 kts | 302° |
| 2026-04-25 13:06 | 39.20408 | -28.18795 | 27699 ft | 419 kts | 302° |
| 2026-04-25 13:07 | 39.21894 | -28.22083 | 28025 ft | 422 kts | 302° |
| 2026-04-25 13:07 | 39.23351 | -28.25310 | 28335 ft | 424 kts | 302° |
| 2026-04-25 13:07 | 39.24839 | -28.28609 | 28640 ft | 426 kts | 302° |
| 2026-04-25 13:07 | 39.26331 | -28.31921 | 28941 ft | 428 kts | 302° |
| 2026-04-25 13:08 | 39.27828 | -28.35246 | 29231 ft | 430 kts | 302° |
| 2026-04-25 13:08 | 39.29332 | -28.38593 | 29512 ft | 432 kts | 302° |
| 2026-04-25 13:08 | 39.30837 | -28.41943 | 29785 ft | 434 kts | 302° |
| 2026-04-25 13:08 | 39.32332 | -28.45276 | 30051 ft | 435 kts | 302° |
| 2026-04-25 13:09 | 39.33862 | -28.48690 | 30311 ft | 437 kts | 302° |
| 2026-04-25 13:09 | 39.35388 | -28.52099 | 30561 ft | 439 kts | 302° |
| 2026-04-25 13:09 | 39.36911 | -28.55506 | 30854 ft | 439 kts | 302° |
| 2026-04-25 13:09 | 39.38413 | -28.58868 | 31199 ft | 438 kts | 302° |
| 2026-04-25 13:10 | 39.39946 | -28.62305 | 31546 ft | 437 kts | 302° |
| 2026-04-25 13:10 | 39.41457 | -28.65696 | 31865 ft | 436 kts | 301° |
| 2026-04-25 13:10 | 39.42968 | -28.69090 | 32171 ft | 435 kts | 301° |
| 2026-04-25 13:10 | 39.44457 | -28.72439 | 32460 ft | 435 kts | 301° |
| 2026-04-25 13:11 | 39.45958 | -28.75818 | 32742 ft | 434 kts | 301° |
| 2026-04-25 13:11 | 39.47461 | -28.79204 | 33019 ft | 434 kts | 301° |
| 2026-04-25 13:11 | 39.48969 | -28.82607 | 33288 ft | 433 kts | 301° |
| 2026-04-25 13:11 | 39.50452 | -28.85958 | 33549 ft | 432 kts | 301° |
| 2026-04-25 13:12 | 39.51942 | -28.89327 | 33794 ft | 432 kts | 301° |
| 2026-04-25 13:12 | 39.53429 | -28.92692 | 34030 ft | 432 kts | 301° |
| 2026-04-25 13:12 | 39.54908 | -28.96043 | 34268 ft | 431 kts | 301° |
| 2026-04-25 13:12 | 39.55896 | -28.98284 | 34410 ft | 431 kts | 301° |
| 2026-04-25 13:13 | 39.57893 | -29.02816 | 34651 ft | 432 kts | 301° |
| 2026-04-25 13:13 | 39.59362 | -29.06155 | 34816 ft | 433 kts | 301° |
| 2026-04-25 13:13 | 39.60854 | -29.09549 | 34982 ft | 433 kts | 301° |
| 2026-04-25 13:13 | 39.62349 | -29.12955 | 35142 ft | 434 kts | 301° |
| 2026-04-25 13:14 | 39.63832 | -29.16337 | 35295 ft | 434 kts | 301° |
| 2026-04-25 13:14 | 39.65313 | -29.19716 | 35442 ft | 435 kts | 301° |
| 2026-04-25 13:14 | 39.66811 | -29.23140 | 35588 ft | 435 kts | 301° |
| 2026-04-25 13:14 | 39.68304 | -29.26557 | 35728 ft | 436 kts | 301° |
| 2026-04-25 13:15 | 39.69793 | -29.29968 | 35853 ft | 437 kts | 301° |